Time;durP1;ratioP1;P1;durP2;ratioP2;P2;SDS_P1;SDS_P2;PMS_P1;PMS_P2;Temp;Humidity;BMP_temperature;BMP_pressure;BME280_temperature;BME280_humidity;BME280_pressure;Samples;Min_cycle;Max_cycle;Signal;HPM_P1;HPM_P2
2023/09/23 00:01:04;;;;;;;11.55;10.05;;;;;;;11.70;85.95;100649.19;5051924;28;20067;-71
2023/09/23 00:03:33;;;;;;;10.65;9.55;;;;;;;11.71;85.78;100652.69;5046682;28;20033;-71
2023/09/23 00:05:59;;;;;;;12.00;9.90;;;;;;;11.73;84.91;100653.47;5043086;28;20029;-71
2023/09/23 00:08:24;;;;;;;11.73;9.55;;;;;;;11.74;85.02;100658.66;5055940;28;20052;-71
2023/09/23 00:10:50;;;;;;;10.38;9.13;;;;;;;11.73;85.18;100659.59;5039415;28;20028;-71
2023/09/23 00:13:17;;;;;;;12.20;10.80;;;;;;;11.72;85.14;100654.41;5047030;28;20666;-71
2023/09/23 00:15:42;;;;;;;16.45;10.98;;;;;;;11.71;85.36;100658.84;5046282;28;20025;-71
2023/09/23 00:18:08;;;;;;;14.18;11.18;;;;;;;11.68;85.38;100666.06;5046848;28;20013;-71
2023/09/23 00:20:35;;;;;;;13.77;11.32;;;;;;;11.64;85.27;100664.50;5049732;28;20037;-71
2023/09/23 00:23:02;;;;;;;14.60;12.43;;;;;;;11.65;86.18;100658.25;5052536;28;20029;-71
2023/09/23 00:25:27;;;;;;;15.10;11.95;;;;;;;11.62;85.95;100653.97;5047530;28;20029;-71
2023/09/23 00:27:55;;;;;;;16.17;13.98;;;;;;;11.63;85.95;100650.38;5055467;28;20037;-70
2023/09/23 00:30:22;;;;;;;17.15;13.98;;;;;;;11.62;86.41;100656.63;5041863;28;20507;-71
2023/09/23 00:32:48;;;;;;;19.65;15.07;;;;;;;11.59;86.17;100658.56;5059101;28;20052;-70
2023/09/23 00:35:14;;;;;;;20.15;15.57;;;;;;;11.59;86.32;100669.16;5048655;28;20044;-70
2023/09/23 00:37:40;;;;;;;19.90;14.52;;;;;;;11.58;86.24;100672.72;5051470;28;20039;-70
2023/09/23 00:40:13;;;;;;;16.05;13.60;;;;;;;11.60;87.74;100676.16;5045421;28;20021;-71
2023/09/23 00:42:38;;;;;;;17.50;12.88;;;;;;;11.66;86.96;100678.53;5032778;28;20078;-71
2023/09/23 00:45:04;;;;;;;20.15;14.98;;;;;;;11.70;87.56;100683.63;5037029;28;20029;-71
2023/09/23 00:47:30;;;;;;;18.83;14.73;;;;;;;11.64;87.82;100691.81;5044493;28;20051;-71
2023/09/23 00:49:56;;;;;;;21.33;14.18;;;;;;;11.58;87.88;100683.31;5051055;28;20073;-71
2023/09/23 00:52:21;;;;;;;20.90;13.88;;;;;;;11.59;87.99;100687.69;5054133;28;20056;-71
2023/09/23 00:54:47;;;;;;;20.38;14.20;;;;;;;11.58;88.33;100694.75;5046165;28;20052;-71
2023/09/23 00:57:14;;;;;;;16.92;13.23;;;;;;;11.58;88.02;100693.91;5044492;28;20462;-71
2023/09/23 00:59:40;;;;;;;19.10;13.93;;;;;;;11.56;87.73;100686.03;5041325;28;20029;-71
2023/09/23 01:02:05;;;;;;;15.75;12.23;;;;;;;11.53;87.11;100680.88;5035040;28;20435;-72
2023/09/23 01:04:31;;;;;;;15.75;12.23;;;;;;;11.53;87.46;100690.63;5036935;28;20029;-71
2023/09/23 01:06:59;;;;;;;16.05;12.30;;;;;;;11.52;87.85;100688.88;5036672;28;20197;-71
2023/09/23 01:09:25;;;;;;;16.90;12.50;;;;;;;11.53;88.11;100688.81;5042739;28;20037;-71
2023/09/23 01:11:51;;;;;;;15.52;11.48;;;;;;;11.54;88.02;100692.34;5039255;28;20060;-71
2023/09/23 01:14:21;;;;;;;18.52;12.35;;;;;;;11.58;88.79;100685.97;5039837;28;20507;-71
2023/09/23 01:16:49;;;;;;;15.02;9.65;;;;;;;11.62;88.08;100698.13;5045237;28;20047;-71
2023/09/23 01:19:15;;;;;;;16.33;9.68;;;;;;;11.65;88.72;100698.81;5044778;28;20440;-71
2023/09/23 01:21:40;;;;;;;11.27;7.93;;;;;;;11.67;88.75;100698.78;5050465;28;20067;-71
2023/09/23 01:24:06;;;;;;;10.63;8.25;;;;;;;11.68;88.88;100693.41;5047207;28;20021;-71
2023/09/23 01:26:31;;;;;;;11.88;8.43;;;;;;;11.74;88.73;100700.19;5038794;28;20057;-71
2023/09/23 01:28:56;;;;;;;11.32;7.78;;;;;;;11.80;88.96;100706.97;5041389;28;20060;-71
2023/09/23 01:31:24;;;;;;;11.88;6.95;;;;;;;11.84;89.31;100709.44;5041073;28;20204;-71
2023/09/23 01:33:50;;;;;;;11.32;7.05;;;;;;;11.89;89.93;100707.47;5040435;28;20095;-71
2023/09/23 01:36:16;;;;;;;12.27;7.20;;;;;;;11.95;89.79;100712.47;5033343;28;20492;-70
2023/09/23 01:38:41;;;;;;;11.40;7.10;;;;;;;11.97;89.73;100710.59;5040311;28;20534;-71
2023/09/23 01:41:07;;;;;;;12.43;7.38;;;;;;;11.99;89.51;100710.53;5053488;28;20033;-71
2023/09/23 01:43:32;;;;;;;9.75;7.13;;;;;;;12.00;89.74;100718.41;5041600;28;20022;-70
2023/09/23 01:46:03;;;;;;;10.88;7.00;;;;;;;12.02;89.42;100714.81;5032213;28;20021;-71
2023/09/23 01:48:29;;;;;;;13.00;6.93;;;;;;;12.03;89.09;100720.06;5040340;28;20110;-71
2023/09/23 01:50:56;;;;;;;14.57;7.88;;;;;;;11.99;89.81;100715.81;5036563;28;20323;-71
2023/09/23 01:53:23;;;;;;;10.70;7.10;;;;;;;12.00;89.54;100725.50;5036426;28;20045;-71
2023/09/23 01:55:48;;;;;;;11.82;5.95;;;;;;;12.07;89.56;100726.03;5037471;28;20524;-71
2023/09/23 01:58:14;;;;;;;8.50;5.90;;;;;;;12.05;89.79;100718.19;5028365;28;20116;-71
2023/09/23 02:00:39;;;;;;;9.90;6.38;;;;;;;12.04;89.65;100724.41;5035546;28;20029;-71
2023/09/23 02:03:05;;;;;;;11.95;7.13;;;;;;;12.04;89.32;100727.06;5035940;28;20341;-72
2023/09/23 02:05:30;;;;;;;9.68;6.18;;;;;;;11.98;89.95;100720.28;5035015;28;20037;-72
2023/09/23 02:07:56;;;;;;;8.80;5.78;;;;;;;12.02;89.78;100725.41;5042693;28;20055;-71
2023/09/23 02:10:24;;;;;;;15.45;6.35;;;;;;;11.97;89.21;100731.78;5043770;28;20064;-71
2023/09/23 02:12:49;;;;;;;11.10;5.90;;;;;;;11.95;88.99;100733.66;5034103;28;20506;-71
2023/09/23 02:15:15;;;;;;;10.73;6.00;;;;;;;11.92;88.96;100735.59;5036326;28;20037;-71
2023/09/23 02:17:47;;;;;;;8.70;5.82;;;;;;;11.86;89.37;100739.38;5051268;28;20079;-72
2023/09/23 02:20:21;;;;;;;8.68;5.68;;;;;;;11.83;89.70;100744.81;5048195;28;20029;-72
2023/09/23 02:22:54;;;;;;;9.02;5.43;;;;;;;11.78;89.20;100744.16;5032413;28;20032;-71
2023/09/23 02:25:24;;;;;;;8.80;4.60;;;;;;;11.77;89.16;100741.56;5039038;28;20088;-71
2023/09/23 02:27:51;;;;;;;9.70;5.43;;;;;;;11.77;89.13;100752.16;5043779;28;20055;-71
2023/09/23 02:30:16;;;;;;;8.75;5.30;;;;;;;11.73;89.23;100751.44;5046795;28;20090;-71
2023/09/23 02:32:43;;;;;;;10.05;5.05;;;;;;;11.68;89.30;100753.44;5039279;28;20021;-71
2023/09/23 02:35:11;;;;;;;12.82;5.50;;;;;;;11.67;89.78;100757.91;5046837;28;20096;-72
2023/09/23 02:37:47;;;;;;;9.30;5.30;;;;;;;11.67;89.41;100768.50;5046992;28;20025;-71
2023/09/23 02:40:17;;;;;;;8.57;5.05;;;;;;;11.65;89.22;100762.38;5040021;28;20508;-72
2023/09/23 02:42:44;;;;;;;7.55;5.13;;;;;;;11.61;89.79;100778.47;5033987;28;20388;-72
2023/09/23 02:45:12;;;;;;;8.13;5.38;;;;;;;11.56;89.17;100781.34;5043727;28;20064;-72
2023/09/23 02:47:38;;;;;;;11.32;5.20;;;;;;;11.55;89.41;100787.56;5046054;28;20111;-71
2023/09/23 02:50:09;;;;;;;7.90;5.05;;;;;;;11.51;90.22;100788.63;5037691;28;20048;-71
2023/09/23 02:52:36;;;;;;;9.47;4.50;;;;;;;11.52;89.74;100795.66;5045104;28;20043;-71
2023/09/23 02:55:02;;;;;;;9.70;4.68;;;;;;;11.54;89.66;100791.16;5036281;28;20282;-71
2023/09/23 02:57:27;;;;;;;10.38;4.65;;;;;;;11.49;89.69;100785.22;5035656;28;20796;-71
2023/09/23 02:59:56;;;;;;;8.10;4.70;;;;;;;11.50;90.40;100785.13;5045776;28;20033;-70
2023/09/23 03:02:24;;;;;;;8.00;4.68;;;;;;;11.48;90.10;100794.94;5029235;28;20108;-71
2023/09/23 03:04:58;;;;;;;7.93;4.60;;;;;;;11.47;89.75;100793.22;5020369;28;20118;-71
2023/09/23 03:07:24;;;;;;;8.90;5.00;;;;;;;11.41;90.38;100777.59;5050627;28;20159;-71
2023/09/23 03:09:55;;;;;;;8.32;4.15;;;;;;;11.45;90.03;100791.56;5048738;28;20075;-71
2023/09/23 03:12:23;;;;;;;5.68;4.00;;;;;;;11.41;90.61;100789.97;5043829;28;20020;-71
2023/09/23 03:14:51;;;;;;;7.05;3.85;;;;;;;11.40;90.57;100789.13;5034274;28;20026;-71
2023/09/23 03:17:21;;;;;;;8.45;4.40;;;;;;;11.36;90.31;100792.81;5051757;28;20162;-71
2023/09/23 03:19:50;;;;;;;5.53;3.95;;;;;;;11.36;90.67;100798.13;5036532;28;20060;-71
2023/09/23 03:22:16;;;;;;;9.40;3.85;;;;;;;11.37;90.64;100797.19;5049760;28;20047;-71
2023/09/23 03:24:41;;;;;;;9.02;4.07;;;;;;;11.39;90.43;100803.28;5041480;28;20028;-71
2023/09/23 03:27:06;;;;;;;7.97;3.88;;;;;;;11.38;90.75;100798.94;5038178;28;20025;-71
2023/09/23 03:29:32;;;;;;;9.65;4.60;;;;;;;11.40;90.51;100806.78;5018056;28;20171;-71
2023/09/23 03:31:58;;;;;;;7.32;3.75;;;;;;;11.39;90.69;100807.72;5047240;28;20029;-71
2023/09/23 03:34:26;;;;;;;10.40;4.00;;;;;;;11.38;91.19;100806.00;5044765;28;20487;-70
2023/09/23 03:36:53;;;;;;;9.15;4.20;;;;;;;11.41;90.46;100808.50;5052040;28;20028;-71
2023/09/23 03:39:19;;;;;;;10.38;3.97;;;;;;;11.42;90.46;100821.69;5048437;28;20025;-71
2023/09/23 03:41:46;;;;;;;6.82;3.67;;;;;;;11.41;90.42;100811.16;5047798;28;20480;-71
2023/09/23 03:44:15;;;;;;;6.22;3.45;;;;;;;11.73;89.01;100815.88;5041674;28;20468;-71
2023/09/23 03:46:50;;;;;;;8.50;3.97;;;;;;;11.75;88.79;100821.13;5040898;28;20477;-71
2023/09/23 03:49:20;;;;;;;6.95;3.40;;;;;;;11.98;87.49;100818.31;5052603;28;20397;-71
2023/09/23 03:51:45;;;;;;;8.52;4.10;;;;;;;11.34;90.81;100822.94;5045663;28;20086;-71
2023/09/23 03:54:11;;;;;;;9.23;3.53;;;;;;;11.32;90.72;100819.50;5047875;28;20033;-71
2023/09/23 03:56:40;;;;;;;5.82;4.18;;;;;;;11.29;91.19;100820.50;5038343;28;20031;-71
2023/09/23 03:59:05;;;;;;;7.10;3.67;;;;;;;11.30;91.02;100822.22;5033049;28;20422;-71
2023/09/23 04:01:32;;;;;;;6.10;3.50;;;;;;;11.28;91.35;100826.69;5043334;28;20123;-71
2023/09/23 04:03:57;;;;;;;7.80;3.45;;;;;;;11.29;90.99;100830.22;5049141;28;20107;-71
2023/09/23 04:06:23;;;;;;;7.45;3.33;;;;;;;11.28;91.24;100836.44;5045182;28;20136;-71
2023/09/23 04:08:49;;;;;;;6.35;3.50;;;;;;;11.27;91.08;100834.72;5036141;28;20045;-71
2023/09/23 04:11:15;;;;;;;8.10;3.47;;;;;;;11.21;91.57;100830.56;5042804;28;20033;-71
2023/09/23 04:13:42;;;;;;;8.10;3.53;;;;;;;11.22;91.24;100829.63;5046473;28;20020;-72
2023/09/23 04:16:09;;;;;;;5.28;2.88;;;;;;;11.26;90.86;100838.28;5048302;28;20477;-71
2023/09/23 04:18:34;;;;;;;6.28;4.18;;;;;;;11.29;91.46;100840.81;5043321;28;20175;-71
2023/09/23 04:21:02;;;;;;;6.50;3.83;;;;;;;11.29;91.60;100836.38;5057532;28;20115;-71
2023/09/23 04:23:27;;;;;;;7.18;3.80;;;;;;;11.34;91.57;100846.78;5043086;28;20086;-71
2023/09/23 04:25:52;;;;;;;8.02;3.75;;;;;;;11.38;91.41;100851.00;5043220;28;20033;-71
2023/09/23 04:28:18;;;;;;;4.97;3.55;;;;;;;11.41;91.37;100850.84;5040768;28;20041;-71
2023/09/23 04:30:44;;;;;;;8.90;3.80;;;;;;;11.41;90.97;100858.78;5048678;28;20070;-71
2023/09/23 04:33:12;;;;;;;7.30;4.00;;;;;;;11.39;91.91;100856.22;5052645;28;20063;-71
2023/09/23 04:35:38;;;;;;;5.43;3.50;;;;;;;11.44;91.26;100866.63;5036473;28;20521;-71
2023/09/23 04:38:03;;;;;;;11.35;4.15;;;;;;;11.43;91.62;100868.41;5047768;28;20140;-70
2023/09/23 04:40:29;;;;;;;7.82;3.53;;;;;;;11.43;90.97;100872.84;5052032;28;20025;-70
2023/09/23 04:42:54;;;;;;;8.48;4.22;;;;;;;11.38;91.33;100877.47;5044782;28;20029;-70
2023/09/23 04:45:20;;;;;;;6.53;3.88;;;;;;;11.36;91.35;100876.66;5040999;28;20024;-71
2023/09/23 04:47:50;;;;;;;8.30;3.50;;;;;;;11.36;90.91;100882.81;5049982;28;20109;-71
2023/09/23 04:50:16;;;;;;;6.88;3.53;;;;;;;11.32;90.96;100881.22;5042942;28;20160;-71
2023/09/23 04:52:42;;;;;;;9.43;3.83;;;;;;;11.31;90.93;100881.31;5050524;28;20016;-71
2023/09/23 04:55:08;;;;;;;8.57;4.38;;;;;;;11.25;91.25;100879.78;5044615;28;20399;-71
2023/09/23 04:57:33;;;;;;;10.48;4.28;;;;;;;11.22;91.14;100879.91;5036260;28;20025;-71
2023/09/23 04:59:59;;;;;;;7.47;3.92;;;;;;;11.21;91.67;100876.41;5034099;28;20033;-71
2023/09/23 05:02:25;;;;;;;5.80;3.50;;;;;;;11.19;91.57;100882.66;5043622;28;20055;-70
2023/09/23 05:04:53;;;;;;;7.47;3.60;;;;;;;11.18;91.30;100889.75;5035534;28;20035;-70
2023/09/23 05:07:19;;;;;;;10.48;4.10;;;;;;;11.19;91.30;100887.97;5039833;28;20057;-71
2023/09/23 05:09:45;;;;;;;6.97;3.92;;;;;;;11.19;91.22;100895.91;5051859;28;20057;-71
2023/09/23 05:12:11;;;;;;;6.10;3.85;;;;;;;11.15;90.90;100900.47;5049561;28;20036;-70
2023/09/23 05:14:37;;;;;;;8.40;3.92;;;;;;;11.15;91.35;100902.28;5043503;28;20043;-71
2023/09/23 05:17:06;;;;;;;5.82;3.70;;;;;;;11.13;91.62;100912.91;5046287;28;20090;-71
2023/09/23 05:19:33;;;;;;;8.35;4.22;;;;;;;11.13;91.97;100925.25;5045122;28;20024;-71
2023/09/23 05:21:59;;;;;;;11.10;4.43;;;;;;;11.13;92.23;100931.41;5049299;28;20029;-71
2023/09/23 05:24:26;;;;;;;8.40;4.00;;;;;;;11.11;91.58;100932.41;5043445;28;20580;-71
2023/09/23 05:26:54;;;;;;;10.32;4.47;;;;;;;11.12;91.70;100939.44;5054994;28;20531;-71
2023/09/23 05:29:20;;;;;;;7.32;3.63;;;;;;;11.07;92.34;100942.25;5042776;28;20021;-71
2023/09/23 05:31:45;;;;;;;12.60;4.53;;;;;;;11.05;92.02;100954.69;5048609;28;20028;-71
2023/09/23 05:34:11;;;;;;;7.35;4.03;;;;;;;11.06;92.28;100963.50;5050919;28;20040;-71
2023/09/23 05:36:36;;;;;;;6.47;4.20;;;;;;;11.08;92.35;100959.00;5050353;28;20154;-71
2023/09/23 05:39:04;;;;;;;10.55;4.32;;;;;;;11.07;92.32;100957.28;5050374;28;20488;-71
2023/09/23 05:41:29;;;;;;;10.65;4.70;;;;;;;11.10;91.93;100954.53;5053033;28;20183;-71
2023/09/23 05:43:54;;;;;;;5.72;3.95;;;;;;;11.09;92.31;100966.84;5045713;28;20591;-71
2023/09/23 05:46:20;;;;;;;6.20;4.15;;;;;;;11.11;91.77;100967.69;5036179;28;20029;-71
2023/09/23 05:48:48;;;;;;;10.07;4.10;;;;;;;11.12;92.02;100974.69;5049165;28;20028;-71
2023/09/23 05:51:14;;;;;;;5.95;3.70;;;;;;;11.11;91.90;100972.97;5053431;28;20037;-72
2023/09/23 05:53:40;;;;;;;6.97;4.13;;;;;;;11.12;91.75;100981.75;5044800;28;20037;-71
2023/09/23 05:56:05;;;;;;;8.13;4.63;;;;;;;11.10;91.84;100988.91;5036442;28;20376;-71
2023/09/23 05:58:30;;;;;;;5.63;3.72;;;;;;;11.15;91.75;100981.66;5036220;28;20605;-71
2023/09/23 06:00:56;;;;;;;8.32;4.03;;;;;;;11.15;91.56;100987.81;5034438;28;20018;-71
2023/09/23 06:03:21;;;;;;;8.48;4.35;;;;;;;11.17;92.02;100998.31;5034868;28;20094;-71
2023/09/23 06:05:46;;;;;;;7.93;4.32;;;;;;;11.21;91.83;101002.56;5040328;28;20037;-72
2023/09/23 06:08:12;;;;;;;9.60;4.18;;;;;;;11.26;91.64;101007.69;5044294;28;20558;-71
2023/09/23 06:10:38;;;;;;;9.95;4.47;;;;;;;11.46;91.11;101013.00;5039058;28;20033;-71
2023/09/23 06:13:05;;;;;;;6.28;4.05;;;;;;;11.63;90.86;101020.25;5037974;28;20033;-72
2023/09/23 06:15:31;;;;;;;7.97;4.15;;;;;;;11.89;89.00;101014.78;5039108;28;20032;-71
2023/09/23 06:17:56;;;;;;;9.75;4.07;;;;;;;11.52;90.41;101025.13;5040585;28;20033;-71
2023/09/23 06:20:22;;;;;;;5.63;3.58;;;;;;;11.51;90.93;101034.84;5046099;28;20033;-71
2023/09/23 06:22:47;;;;;;;6.68;3.55;;;;;;;11.52;90.68;101036.59;5030327;28;20032;-71
2023/09/23 06:25:13;;;;;;;8.95;4.55;;;;;;;11.56;91.03;101045.25;5042249;28;20075;-71
2023/09/23 06:27:38;;;;;;;5.50;3.35;;;;;;;11.60;90.18;101049.50;5053725;28;20028;-71
2023/09/23 06:30:05;;;;;;;6.68;3.72;;;;;;;11.59;90.56;101045.16;5041639;28;20115;-70
2023/09/23 06:32:31;;;;;;;7.10;3.88;;;;;;;11.64;89.76;101051.13;5039455;28;20040;-71
2023/09/23 06:34:57;;;;;;;6.78;3.92;;;;;;;11.61;90.64;101048.56;5039462;28;20032;-71
2023/09/23 06:37:22;;;;;;;6.68;4.25;;;;;;;11.83;89.98;101056.53;5046340;28;20070;-71
2023/09/23 06:39:47;;;;;;;8.75;4.32;;;;;;;11.93;88.65;101060.53;5044817;28;20041;-71
2023/09/23 06:42:12;;;;;;;8.63;4.53;;;;;;;12.00;89.23;101059.34;5059470;28;20064;-70
2023/09/23 06:44:38;;;;;;;4.75;3.70;;;;;;;12.08;89.14;101062.53;5044179;28;20025;-70
2023/09/23 06:47:04;;;;;;;6.85;4.38;;;;;;;12.15;89.08;101071.06;5046468;28;20476;-70
2023/09/23 06:49:29;;;;;;;7.57;3.60;;;;;;;12.20;88.31;101074.38;5044375;28;20047;-71
2023/09/23 06:51:55;;;;;;;9.57;4.57;;;;;;;12.26;88.37;101074.13;5021393;28;20029;-70
2023/09/23 06:54:20;;;;;;;7.47;4.13;;;;;;;12.29;88.76;101074.00;5037512;28;20075;-70
2023/09/23 06:56:46;;;;;;;7.60;4.38;;;;;;;12.28;88.54;101077.56;5042771;28;20083;-71
2023/09/23 06:59:11;;;;;;;4.55;4.05;;;;;;;12.29;88.61;101078.44;5032358;28;20020;-71
2023/09/23 07:01:36;;;;;;;8.27;4.00;;;;;;;12.34;88.85;101079.94;5017450;28;20034;-71
2023/09/23 07:04:02;;;;;;;6.82;4.10;;;;;;;12.40;88.57;101084.13;5058970;28;20111;-70
2023/09/23 07:06:28;;;;;;;7.95;3.60;;;;;;;12.46;88.42;101083.88;5036530;28;20032;-70
2023/09/23 07:08:53;;;;;;;10.73;4.60;;;;;;;12.45;88.31;101085.66;5039622;28;20071;-70
2023/09/23 07:11:18;;;;;;;7.07;4.15;;;;;;;12.52;88.02;101094.19;5051108;28;20041;-70
2023/09/23 07:13:44;;;;;;;8.75;4.25;;;;;;;12.52;88.84;101100.34;5041642;28;20081;-70
2023/09/23 07:16:16;;;;;;;6.25;4.00;;;;;;;12.60;88.17;101109.78;5037776;28;20037;-70
2023/09/23 07:18:44;;;;;;;6.78;4.40;;;;;;;12.66;88.20;101113.00;5047649;28;20408;-70
2023/09/23 07:21:09;;;;;;;7.38;4.43;;;;;;;12.68;87.63;101118.25;5038472;28;20029;-70
2023/09/23 07:23:35;;;;;;;7.43;4.40;;;;;;;12.73;87.71;101119.78;5043132;28;20460;-70
2023/09/23 07:26:01;;;;;;;8.55;4.72;;;;;;;12.80;88.07;101124.81;5051644;28;20071;-70
2023/09/23 07:28:26;;;;;;;6.97;4.57;;;;;;;12.91;87.49;101126.03;5043832;28;20431;-70
2023/09/23 07:30:51;;;;;;;6.50;4.55;;;;;;;12.98;86.94;101130.13;5038050;28;20013;-70
2023/09/23 07:33:17;;;;;;;6.32;5.07;;;;;;;13.09;87.16;101137.59;5031953;28;20223;-71
2023/09/23 07:35:43;;;;;;;9.18;4.78;;;;;;;13.16;87.08;101149.69;5048492;28;20032;-71
2023/09/23 07:38:08;;;;;;;8.70;5.03;;;;;;;13.14;86.30;101140.91;5048697;28;20024;-71
2023/09/23 07:40:38;;;;;;;8.77;4.90;;;;;;;13.22;86.43;101154.72;5040960;28;20048;-69
2023/09/23 07:43:03;;;;;;;7.43;4.47;;;;;;;13.41;86.39;101161.84;5049188;28;20035;-71
2023/09/23 07:45:29;;;;;;;5.32;3.65;;;;;;;13.61;85.82;101151.13;5046928;28;20264;-71
2023/09/23 07:47:54;;;;;;;8.63;4.55;;;;;;;13.60;85.44;101162.69;5050417;28;20033;-71
2023/09/23 07:50:19;;;;;;;10.23;4.65;;;;;;;13.83;85.00;101166.03;5041598;28;20554;-70
2023/09/23 07:52:45;;;;;;;6.43;4.32;;;;;;;13.98;84.19;101155.50;5040547;28;20033;-71
2023/09/23 07:55:11;;;;;;;10.48;4.88;;;;;;;14.25;83.67;101163.06;5053317;28;20027;-71
2023/09/23 07:57:36;;;;;;;8.05;4.30;;;;;;;14.54;82.03;101173.09;5040078;28;20035;-71
2023/09/23 08:00:02;;;;;;;9.45;4.22;;;;;;;14.71;80.75;101169.59;5045724;28;20037;-71
2023/09/23 08:02:28;;;;;;;8.52;3.95;;;;;;;14.79;80.60;101170.06;5030937;28;20032;-72
2023/09/23 08:04:53;;;;;;;7.93;3.95;;;;;;;15.05;79.81;101178.44;5035957;28;20029;-71
2023/09/23 08:07:19;;;;;;;7.55;4.30;;;;;;;15.37;77.75;101179.38;5040995;28;20480;-71
2023/09/23 08:09:44;;;;;;;6.53;3.65;;;;;;;15.74;77.37;101183.56;5043329;28;20032;-71
2023/09/23 08:12:10;;;;;;;5.30;3.53;;;;;;;15.88;76.05;101189.94;5043651;28;20028;-71
2023/09/23 08:14:35;;;;;;;6.30;3.85;;;;;;;16.13;75.31;101206.22;5019023;28;20413;-70
2023/09/23 08:17:01;;;;;;;9.65;4.00;;;;;;;16.18;74.93;101201.53;5033256;28;20035;-70
2023/09/23 08:19:26;;;;;;;4.68;3.20;;;;;;;16.16;74.67;101208.72;5046807;28;20407;-70
2023/09/23 08:21:51;;;;;;;10.02;3.88;;;;;;;16.21;73.51;101205.81;5022005;28;20025;-71
2023/09/23 08:24:17;;;;;;;5.53;3.63;;;;;;;16.20;74.85;101201.41;5038628;28;21149;-71
2023/09/23 08:26:42;;;;;;;6.28;3.47;;;;;;;16.49;73.87;101202.38;5040143;28;20146;-71
2023/09/23 08:29:08;;;;;;;8.30;3.58;;;;;;;16.60;72.11;101215.97;5034448;28;20107;-71
2023/09/23 08:31:33;;;;;;;5.00;3.63;;;;;;;16.85;71.53;101218.06;5041112;28;20408;-71
2023/09/23 08:33:58;;;;;;;5.95;3.28;;;;;;;17.06;71.37;101208.72;5023191;28;20024;-71
2023/09/23 08:36:24;;;;;;;6.72;3.60;;;;;;;17.32;69.81;101225.81;5038677;28;20025;-70
2023/09/23 08:38:49;;;;;;;6.28;3.63;;;;;;;17.50;69.46;101223.81;5034745;28;20208;-71
2023/09/23 08:41:16;;;;;;;6.22;3.05;;;;;;;17.76;67.89;101232.88;5033256;28;20041;-70
2023/09/23 08:43:43;;;;;;;8.52;2.85;;;;;;;17.59;67.87;101238.41;5048419;28;20029;-70
2023/09/23 08:46:11;;;;;;;6.80;2.83;;;;;;;17.67;68.35;101241.44;5033281;28;20437;-71
2023/09/23 08:48:38;;;;;;;6.00;2.95;;;;;;;17.67;69.69;101246.78;5034452;28;20087;-71
2023/09/23 08:51:06;;;;;;;6.88;3.35;;;;;;;18.07;67.71;101255.84;5044097;28;20532;-71
2023/09/23 08:53:37;;;;;;;5.90;3.05;;;;;;;18.48;66.41;101270.16;5036291;28;20025;-71
2023/09/23 08:56:05;;;;;;;7.22;3.30;;;;;;;18.93;64.84;101265.34;5039445;28;20121;-71
2023/09/23 08:58:30;;;;;;;5.13;3.00;;;;;;;19.12;62.94;101263.16;5036144;28;20091;-71
2023/09/23 09:00:56;;;;;;;7.30;2.80;;;;;;;19.17;62.06;101273.53;5049923;28;20020;-71
2023/09/23 09:03:22;;;;;;;5.43;2.80;;;;;;;18.61;63.58;101273.72;5048843;28;20037;-71
2023/09/23 09:05:47;;;;;;;3.65;2.70;;;;;;;18.49;66.07;101277.22;5039212;28;20017;-71
2023/09/23 09:08:12;;;;;;;5.50;2.60;;;;;;;18.35;65.68;101270.09;5039066;28;20052;-70
2023/09/23 09:10:40;;;;;;;6.22;2.72;;;;;;;18.02;65.15;101276.69;5044168;28;20205;-71
2023/09/23 09:13:06;;;;;;;3.10;2.53;;;;;;;17.71;66.50;101274.22;5038767;28;20508;-71
2023/09/23 09:15:35;;;;;;;7.68;2.88;;;;;;;17.53;68.39;101276.22;5046348;28;20611;-70
2023/09/23 09:18:00;;;;;;;4.90;2.80;;;;;;;17.67;68.21;101289.56;5042820;28;20448;-71
2023/09/23 09:20:25;;;;;;;7.90;3.20;;;;;;;17.62;67.48;101275.63;5045496;28;20117;-71
2023/09/23 09:22:51;;;;;;;3.15;2.47;;;;;;;17.38;67.67;101293.22;5040314;28;20101;-71
2023/09/23 09:25:20;;;;;;;6.70;2.58;;;;;;;17.33;68.19;101293.50;5049835;28;20064;-72
2023/09/23 09:27:45;;;;;;;6.38;2.67;;;;;;;17.48;68.83;101297.03;5038356;28;20040;-71
2023/09/23 09:30:11;;;;;;;7.15;2.63;;;;;;;17.51;68.40;101299.53;5044169;28;20021;-70
2023/09/23 09:32:40;;;;;;;8.10;3.03;;;;;;;17.51;67.90;101307.53;5048923;28;20017;-71
2023/09/23 09:35:10;;;;;;;5.03;2.60;;;;;;;17.33;68.52;101298.84;5050877;28;20480;-71
2023/09/23 09:37:39;;;;;;;8.02;3.10;;;;;;;17.22;69.99;101304.00;5041578;28;20104;-70
2023/09/23 09:40:06;;;;;;;9.88;2.78;;;;;;;17.27;69.67;101309.91;5060210;28;20103;-71
2023/09/23 09:42:36;;;;;;;7.32;2.78;;;;;;;17.18;69.07;101314.00;5045780;28;20523;-71
2023/09/23 09:45:04;;;;;;;4.95;2.47;;;;;;;17.13;69.85;101325.91;5060399;28;20108;-71
2023/09/23 09:47:29;;;;;;;4.53;1.88;;;;;;;17.01;69.81;101324.81;5042319;28;20073;-71
2023/09/23 09:49:55;;;;;;;3.22;2.17;;;;;;;16.83;71.24;101324.09;5057851;28;20489;-71
2023/09/23 09:52:28;;;;;;;4.78;2.25;;;;;;;16.91;70.80;101327.16;5032753;28;20064;-71
2023/09/23 09:54:55;;;;;;;5.78;2.45;;;;;;;16.81;70.36;101332.19;5047408;28;20017;-70
2023/09/23 09:57:26;;;;;;;4.80;2.30;;;;;;;16.94;69.80;101329.69;5038689;28;20075;-70
2023/09/23 10:00:00;;;;;;;6.63;2.17;;;;;;;17.09;70.59;101331.44;5045596;28;20032;-70
2023/09/23 10:02:27;;;;;;;4.32;2.17;;;;;;;17.26;70.31;101329.56;5033759;28;20064;-70
2023/09/23 10:04:53;;;;;;;4.13;1.90;;;;;;;17.24;68.86;101339.47;5041882;28;20029;-70
2023/09/23 10:07:22;;;;;;;5.93;2.15;;;;;;;17.19;68.79;101341.56;5058096;28;20487;-71
2023/09/23 10:09:54;;;;;;;3.80;2.05;;;;;;;17.14;70.27;101340.97;5044412;28;20519;-70
2023/09/23 10:12:31;;;;;;;6.22;2.33;;;;;;;17.19;69.77;101338.91;5042749;28;20029;-70
2023/09/23 10:14:57;;;;;;;6.53;2.25;;;;;;;17.46;68.96;101334.56;5040478;28;20028;-72
2023/09/23 10:17:31;;;;;;;6.85;2.55;;;;;;;17.51;67.55;101334.28;5037845;28;20037;-71
2023/09/23 10:19:58;;;;;;;10.30;2.65;;;;;;;17.77;66.77;101340.72;5039830;28;20503;-71
2023/09/23 10:22:24;;;;;;;4.03;2.30;;;;;;;17.93;67.33;101341.47;5050720;28;20033;-70
2023/09/23 10:25:04;;;;;;;4.18;2.40;;;;;;;18.08;66.86;101342.31;5043786;28;20482;-70
2023/09/23 10:27:30;;;;;;;4.85;2.13;;;;;;;18.19;65.79;101353.22;5042035;28;20037;-70
2023/09/23 10:29:56;;;;;;;6.22;2.65;;;;;;;18.76;64.06;101350.41;5044946;28;20051;-71
2023/09/23 10:32:21;;;;;;;7.05;2.72;;;;;;;18.58;64.70;101356.94;5015408;28;20029;-71
2023/09/23 10:34:56;;;;;;;3.97;2.58;;;;;;;18.27;65.53;101356.25;5039360;28;20035;-71
2023/09/23 10:37:31;;;;;;;5.30;2.28;;;;;;;18.10;65.82;101356.47;5037002;28;20020;-71
2023/09/23 10:40:15;;;;;;;7.32;2.50;;;;;;;17.98;66.99;101352.75;5040973;28;20454;-71
2023/09/23 10:42:41;;;;;;;6.95;2.80;;;;;;;17.83;66.59;101373.28;5051697;28;20574;-70
2023/09/23 10:45:12;;;;;;;4.35;2.90;;;;;;;17.83;66.38;101370.63;5044516;28;20024;-71
2023/09/23 10:47:38;;;;;;;5.00;2.83;;;;;;;17.81;68.61;101371.66;5041845;28;20036;-71
2023/09/23 10:50:05;;;;;;;6.07;2.92;;;;;;;17.97;67.89;101377.78;5042718;28;20025;-70
2023/09/23 10:52:31;;;;;;;6.65;2.80;;;;;;;18.03;66.44;101380.06;5036788;28;20029;-71
2023/09/23 10:54:57;;;;;;;6.50;2.90;;;;;;;18.20;65.89;101379.00;5045481;28;20036;-71
2023/09/23 10:57:23;;;;;;;4.95;3.00;;;;;;;18.47;64.32;101378.22;5043918;28;20539;-70
2023/09/23 10:59:50;;;;;;;5.45;3.05;;;;;;;18.62;63.41;101385.25;5041708;28;20036;-70
2023/09/23 11:02:15;;;;;;;6.18;3.00;;;;;;;18.57;63.56;101384.69;5040842;28;20026;-70
2023/09/23 11:04:45;;;;;;;6.28;3.30;;;;;;;18.54;63.96;101391.09;5044976;28;20025;-70
2023/09/23 11:07:10;;;;;;;5.80;3.28;;;;;;;18.53;63.75;101392.06;5044944;28;20044;-70
2023/09/23 11:09:36;;;;;;;3.10;2.80;;;;;;;18.45;64.81;101405.06;5044752;28;20387;-71
2023/09/23 11:12:15;;;;;;;4.90;3.33;;;;;;;18.39;65.23;101410.81;5041896;28;20028;-70
2023/09/23 11:14:44;;;;;;;5.38;3.35;;;;;;;18.31;64.82;101402.41;5041865;28;20018;-70
2023/09/23 11:17:26;;;;;;;7.00;3.20;;;;;;;18.57;63.82;101414.16;5048575;28;20021;-70
2023/09/23 11:19:59;;;;;;;4.93;3.92;;;;;;;18.75;63.37;101410.31;5041616;28;20503;-70